Terminal Aerodrome Forecast
Issued by NWS Flagstaff, AZ

Home | Current Version | Previous Version | Text Only | Print | Product List | Glossary On
Versions: 1 2 3 4 5 6 7 8 9 10 11 12 13 14 15 16 17 18 19 20 21 22 23
232
FTUS45 KFGZ 181720
TAFFLG
TAF
KFLG 181720Z 1818/1918 22011G19KT P6SM FEW035
     FM190100 23007KT P6SM FEW110 SCT200
     FM190900 23007KT P6SM SCT040 BKN080
     FM191300 23011KT 4SM -SN SCT008 OVC015=

USA.gov is the U.S. government's official web portal to all federal, state and local government web resources and services.